createdAt,value
2022-07-30T00:02:05.015Z,6.55
2022-07-30T00:04:32.657Z,6.43
2022-07-30T00:07:01.217Z,6.68
2022-07-30T00:09:29.245Z,6.43
2022-07-30T00:12:01.894Z,7.00
2022-07-30T00:14:30.771Z,7.25
2022-07-30T00:16:58.594Z,6.97
2022-07-30T00:19:26.395Z,7.15
2022-07-30T00:21:57.285Z,7.35
2022-07-30T00:24:24.837Z,7.55
2022-07-30T00:26:52.717Z,8.00
2022-07-30T00:29:20.717Z,8.23
2022-07-30T00:31:48.322Z,8.40
2022-07-30T00:34:15.942Z,8.65
2022-07-30T00:36:43.851Z,8.95
2022-07-30T00:39:11.383Z,9.40
2022-07-30T00:41:59.287Z,8.73
2022-07-30T00:44:27.465Z,8.82
2022-07-30T00:46:55.489Z,8.50
2022-07-30T00:49:23.539Z,7.88
2022-07-30T00:51:52.125Z,7.82
2022-07-30T00:54:21.372Z,7.75
2022-07-30T00:56:49.271Z,7.20
2022-07-30T00:59:17.289Z,6.43
2022-07-30T01:01:44.886Z,6.63
2022-07-30T01:04:12.733Z,6.88
2022-07-30T01:06:40.593Z,6.68
2022-07-30T01:09:08.518Z,6.95
2022-07-30T01:11:40.675Z,7.07
2022-07-30T01:14:09.378Z,7.25
2022-07-30T01:16:38.056Z,6.97
2022-07-30T01:19:27.686Z,6.57
2022-07-30T01:22:01.433Z,6.93
2022-07-30T01:24:39.286Z,6.25
2022-07-30T01:27:08.053Z,6.57
2022-07-30T01:29:35.875Z,6.55
2022-07-30T01:32:06.205Z,6.63
2022-07-30T01:34:35.414Z,6.22
2022-07-30T01:37:04.760Z,6.63
2022-07-30T01:39:32.779Z,6.10
2022-07-30T01:42:05.214Z,6.95
2022-07-30T01:44:32.929Z,6.53
2022-07-30T01:47:02.064Z,8.30
2022-07-30T01:49:30.367Z,7.75
2022-07-30T01:51:59.202Z,8.35
2022-07-30T01:54:27.623Z,7.82
2022-07-30T01:56:57.779Z,8.43
2022-07-30T01:59:25.882Z,7.32
2022-07-30T02:01:53.621Z,7.45
2022-07-30T02:04:21.701Z,7.30
2022-07-30T02:06:59.880Z,7.18
2022-07-30T02:09:30.552Z,8.18
2022-07-30T02:12:28.629Z,8.18
2022-07-30T02:15:17.507Z,7.93
2022-07-30T02:17:57.044Z,8.25
2022-07-30T02:20:28.311Z,7.43
2022-07-30T02:23:00.187Z,7.65
2022-07-30T02:25:28.252Z,7.47
2022-07-30T02:28:01.230Z,7.50
2022-07-30T02:30:33.764Z,6.93
2022-07-30T02:33:10.652Z,7.35
2022-07-30T02:35:38.980Z,6.68
2022-07-30T02:38:07.384Z,7.32
2022-07-30T02:40:34.918Z,7.15
2022-07-30T02:43:02.928Z,7.72
2022-07-30T02:45:31.460Z,8.50
2022-07-30T02:48:01.982Z,9.52
2022-07-30T02:50:31.177Z,9.38
2022-07-30T02:53:00.149Z,8.40
2022-07-30T02:55:28.738Z,8.70
2022-07-30T02:57:57.241Z,7.97
2022-07-30T03:00:25.136Z,7.30
2022-07-30T03:02:56.865Z,8.10
2022-07-30T03:05:26.398Z,9.60
2022-07-30T03:07:55.840Z,8.63
2022-07-30T03:10:25.018Z,8.55
2022-07-30T03:12:53.486Z,8.88
2022-07-30T03:15:21.179Z,7.53
2022-07-30T03:17:51.195Z,7.80
2022-07-30T03:20:20.649Z,8.30
2022-07-30T03:22:52.690Z,7.22
2022-07-30T03:25:22.228Z,8.23
2022-07-30T03:27:52.603Z,8.00
2022-07-30T03:30:20.245Z,7.60
2022-07-30T03:32:48.479Z,8.13
2022-07-30T03:35:16.993Z,6.95
2022-07-30T03:37:47.407Z,7.22
2022-07-30T03:40:15.928Z,8.27
2022-07-30T03:42:45.468Z,6.65
2022-07-30T03:45:16.029Z,6.85
2022-07-30T03:47:44.712Z,6.57
2022-07-30T03:50:15.105Z,6.97
2022-07-30T03:52:43.802Z,6.97
2022-07-30T03:55:16.291Z,6.72
2022-07-30T03:57:47.357Z,6.33
2022-07-30T04:00:15.788Z,6.75
2022-07-30T04:02:49.633Z,7.90
2022-07-30T04:05:41.663Z,7.20
2022-07-30T04:08:11.832Z,7.15
2022-07-30T04:10:40.140Z,7.60
2022-07-30T04:13:26.567Z,8.38
2022-07-30T04:16:40.050Z,8.25
2022-07-30T04:18:45.045Z,7.80
2022-07-30T04:21:17.316Z,7.88
2022-07-30T04:24:01.834Z,7.95
2022-07-30T04:26:33.452Z,8.05
2022-07-30T04:29:01.696Z,8.30
2022-07-30T04:31:30.495Z,7.82
2022-07-30T04:34:05.854Z,15.02
2022-07-30T04:36:40.239Z,7.93
2022-07-30T04:39:08.330Z,11.07
2022-07-30T04:41:48.605Z,7.78
2022-07-30T04:44:39.136Z,7.95
2022-07-30T04:47:27.708Z,7.93
2022-07-30T04:50:14.879Z,8.73
2022-07-30T04:52:44.565Z,7.28
2022-07-30T04:55:15.920Z,7.32
2022-07-30T04:57:47.463Z,7.90
2022-07-30T05:00:15.959Z,8.85
2022-07-30T05:02:44.156Z,9.38
2022-07-30T05:05:12.914Z,9.13
2022-07-30T05:07:41.936Z,8.73
2022-07-30T05:10:11.579Z,8.73
2022-07-30T05:12:39.972Z,9.68
2022-07-30T05:15:09.120Z,9.68
2022-07-30T05:17:37.230Z,10.18
2022-07-30T05:20:07.603Z,8.63
2022-07-30T05:22:53.105Z,10.30
2022-07-30T05:25:22.475Z,8.63
2022-07-30T05:27:52.695Z,8.15
2022-07-30T05:30:22.251Z,8.23
2022-07-30T05:32:57.323Z,8.73
2022-07-30T05:35:25.885Z,8.93
2022-07-30T05:37:54.742Z,8.60
2022-07-30T05:40:22.393Z,8.35
2022-07-30T05:43:05.208Z,8.30
2022-07-30T05:45:32.976Z,7.70
2022-07-30T05:48:00.618Z,8.75
2022-07-30T05:50:28.614Z,8.18
2022-07-30T05:52:58.404Z,8.18
2022-07-30T05:55:44.822Z,7.55
2022-07-30T05:58:21.497Z,7.80
2022-07-30T06:00:49.814Z,6.47
2022-07-30T06:03:18.511Z,8.95
2022-07-30T06:06:05.344Z,8.68
2022-07-30T06:08:33.172Z,7.70
2022-07-30T06:11:01.073Z,6.95
2022-07-30T06:13:28.967Z,6.80
2022-07-30T06:15:56.805Z,7.13
2022-07-30T06:18:24.476Z,7.63
2022-07-30T06:20:54.446Z,6.43
2022-07-30T06:23:47.106Z,7.07
2022-07-30T06:26:33.489Z,6.57
2022-07-30T06:29:20.862Z,6.57
2022-07-30T06:31:48.942Z,6.00
2022-07-30T06:34:16.573Z,6.55
2022-07-30T06:36:44.707Z,6.88
2022-07-30T06:39:55.794Z,7.05
2022-07-30T06:42:32.723Z,7.20
2022-07-30T06:45:31.144Z,6.72
2022-07-30T06:48:15.388Z,6.05
2022-07-30T06:50:43.237Z,6.05
2022-07-30T06:53:11.451Z,6.07
2022-07-30T06:56:05.134Z,6.05
2022-07-30T06:58:43.069Z,5.97
2022-07-30T07:01:29.428Z,6.65
2022-07-30T07:03:59.370Z,6.03
2022-07-30T07:06:27.160Z,5.95
2022-07-30T07:08:55.680Z,5.82
2022-07-30T07:11:33.035Z,6.13
2022-07-30T07:14:23.522Z,5.90
2022-07-30T07:16:51.196Z,4.88
2022-07-30T07:20:00.131Z,7.07
2022-07-30T07:22:27.658Z,6.80
2022-07-30T07:24:55.458Z,5.68
2022-07-30T07:27:27.125Z,5.57
2022-07-30T07:30:01.837Z,6.07
2022-07-30T07:32:35.872Z,5.30
2022-07-30T07:35:04.767Z,5.57
2022-07-30T07:37:33.922Z,6.72
2022-07-30T07:40:01.569Z,6.05
2022-07-30T07:42:32.405Z,6.63
2022-07-30T07:44:59.903Z,5.60
2022-07-30T07:47:31.985Z,6.90
2022-07-30T07:50:11.512Z,6.40
2022-07-30T07:52:39.188Z,6.50
2022-07-30T07:55:07.438Z,5.95
2022-07-30T07:57:40.290Z,5.47
2022-07-30T08:00:09.818Z,6.53
2022-07-30T08:02:47.601Z,6.85
2022-07-30T08:05:17.029Z,5.85
2022-07-30T08:07:47.751Z,5.95
2022-07-30T08:10:34.087Z,6.22
2022-07-30T08:13:51.614Z,5.63
2022-07-30T08:16:39.415Z,7.70
2022-07-30T08:19:27.429Z,6.82
2022-07-30T08:22:13.735Z,4.90
2022-07-30T08:24:41.815Z,5.22
2022-07-30T08:27:09.583Z,3.80
2022-07-30T08:29:37.660Z,3.75
2022-07-30T08:32:06.270Z,3.67
2022-07-30T08:37:04.740Z,3.70
2022-07-30T08:39:32.533Z,3.60
2022-07-30T08:42:03.260Z,4.13
2022-07-30T08:44:31.202Z,3.72
2022-07-30T08:47:00.778Z,3.28
2022-07-30T08:49:49.003Z,3.70
2022-07-30T08:52:19.527Z,3.90
2022-07-30T08:54:56.377Z,4.05
2022-07-30T08:57:24.388Z,3.70
2022-07-30T08:59:59.082Z,3.72
2022-07-30T09:02:31.566Z,3.70
2022-07-30T09:05:04.418Z,3.67
2022-07-30T09:07:33.775Z,3.85
2022-07-30T09:10:03.067Z,5.30
2022-07-30T09:12:34.978Z,5.00
2022-07-30T09:15:06.972Z,5.65
2022-07-30T09:17:48.094Z,4.85
2022-07-30T09:20:16.280Z,6.00
2022-07-30T09:22:45.237Z,5.47
2022-07-30T09:28:32.999Z,6.75
2022-07-30T09:31:17.357Z,6.53
2022-07-30T09:34:03.813Z,6.45
2022-07-30T09:37:04.704Z,15.05
2022-07-30T09:39:59.204Z,8.93
2022-07-30T09:42:46.300Z,15.35
2022-07-30T09:45:16.163Z,9.13
2022-07-30T09:47:48.548Z,8.30
2022-07-30T09:53:09.487Z,7.55
2022-07-30T09:55:42.184Z,8.20
2022-07-30T09:58:13.029Z,7.25
2022-07-30T10:00:59.488Z,5.90
2022-07-30T10:03:47.904Z,4.75
2022-07-30T10:06:37.816Z,4.10
2022-07-30T10:09:25.255Z,4.75
2022-07-30T10:11:56.063Z,4.82
2022-07-30T10:14:30.781Z,5.05
2022-07-30T10:17:00.871Z,5.53
2022-07-30T10:19:40.346Z,5.45
2022-07-30T10:22:28.390Z,5.35
2022-07-30T10:25:18.825Z,5.18
2022-07-30T10:28:15.274Z,5.18
2022-07-30T10:30:45.209Z,5.93
2022-07-30T10:33:34.890Z,5.72
2022-07-30T10:36:02.769Z,5.60
2022-07-30T10:38:39.460Z,5.80
2022-07-30T10:41:09.846Z,6.53
2022-07-30T10:44:05.118Z,6.85
2022-07-30T10:46:39.058Z,7.03
2022-07-30T10:49:19.075Z,6.72
2022-07-30T10:51:47.324Z,8.60
2022-07-30T10:54:39.764Z,7.65
2022-07-30T10:57:14.867Z,9.60
2022-07-30T10:59:55.449Z,11.13
2022-07-30T11:02:29.301Z,11.70
2022-07-30T11:05:17.451Z,12.13
2022-07-30T11:07:47.243Z,13.48
2022-07-30T11:10:33.971Z,14.85
2022-07-30T11:13:01.830Z,13.82
2022-07-30T11:15:48.337Z,14.98
2022-07-30T11:18:16.249Z,16.38
2022-07-30T11:20:48.780Z,17.25
2022-07-30T11:23:19.747Z,17.15
2022-07-30T11:25:50.364Z,17.13
2022-07-30T11:28:38.194Z,16.95
2022-07-30T11:31:37.204Z,18.20
2022-07-30T11:34:25.685Z,18.08
2022-07-30T11:37:19.173Z,18.83
2022-07-30T11:40:11.021Z,18.10
2022-07-30T11:42:39.906Z,17.23
2022-07-30T11:45:16.882Z,17.23
2022-07-30T11:47:45.483Z,16.40
2022-07-30T11:50:20.069Z,17.63
2022-07-30T11:52:59.151Z,20.60
2022-07-30T11:55:28.842Z,16.25
2022-07-30T11:57:56.740Z,14.52
2022-07-30T12:00:24.714Z,17.27
2022-07-30T12:02:52.845Z,20.23
2022-07-30T12:05:25.223Z,17.38
2022-07-30T12:07:57.262Z,14.98
2022-07-30T12:10:27.453Z,13.18
2022-07-30T12:13:07.912Z,16.20
2022-07-30T12:15:37.509Z,11.43
2022-07-30T12:18:25.207Z,12.23
2022-07-30T12:21:00.637Z,10.85
2022-07-30T12:23:28.845Z,13.65
2022-07-30T12:25:57.047Z,13.90
2022-07-30T12:28:27.146Z,12.45
2022-07-30T12:30:55.449Z,14.13
2022-07-30T12:33:23.748Z,13.15
2022-07-30T12:35:53.339Z,13.18
2022-07-30T12:38:22.146Z,13.13
2022-07-30T12:41:03.345Z,14.63
2022-07-30T12:43:46.489Z,16.00
2022-07-30T12:46:24.633Z,12.10
2022-07-30T12:48:55.422Z,16.70
2022-07-30T12:51:24.293Z,18.33
2022-07-30T12:53:52.916Z,15.73
2022-07-30T12:56:22.186Z,13.25
2022-07-30T12:58:50.132Z,12.43
2022-07-30T13:01:18.508Z,14.68
2022-07-30T13:03:46.433Z,16.92
2022-07-30T13:06:15.512Z,14.88
2022-07-30T13:08:50.669Z,14.07
2022-07-30T13:11:19.564Z,15.43
2022-07-30T13:13:47.505Z,16.13
2022-07-30T13:16:15.636Z,14.25
2022-07-30T13:18:43.473Z,13.77
2022-07-30T13:21:11.389Z,13.07
2022-07-30T13:23:41.572Z,12.18
2022-07-30T13:26:10.308Z,8.93
2022-07-30T13:28:38.339Z,8.65
2022-07-30T13:31:07.557Z,7.55
2022-07-30T13:33:39.061Z,6.57
2022-07-30T13:36:07.703Z,6.63
2022-07-30T13:38:35.356Z,7.00
2022-07-30T13:41:04.485Z,7.22
2022-07-30T13:43:34.069Z,7.38
2022-07-30T13:46:05.502Z,6.75
2022-07-30T13:51:02.413Z,5.00
2022-07-30T13:53:30.274Z,5.70
2022-07-30T13:56:01.871Z,5.10
2022-07-30T14:01:03.735Z,4.30
2022-07-30T14:03:31.426Z,3.88
2022-07-30T14:06:10.512Z,3.60
2022-07-30T14:08:40.020Z,4.22
2022-07-30T14:11:08.294Z,3.92
2022-07-30T14:13:35.921Z,3.80
2022-07-30T14:16:03.665Z,3.20
2022-07-30T14:18:31.321Z,3.28
2022-07-30T14:20:59.110Z,3.30
2022-07-30T14:23:27.089Z,3.08
2022-07-30T14:25:54.723Z,2.60
2022-07-30T14:28:22.392Z,2.25
2022-07-30T14:30:50.397Z,3.13
2022-07-30T14:33:17.989Z,2.40
2022-07-30T14:35:45.521Z,2.47
2022-07-30T14:38:13.352Z,2.60
2022-07-30T14:40:40.908Z,2.70
2022-07-30T14:43:08.479Z,2.67
2022-07-30T14:45:36.637Z,2.67
2022-07-30T14:48:04.277Z,3.00
2022-07-30T14:50:32.009Z,3.03
2022-07-30T14:52:59.745Z,3.03
2022-07-30T14:55:27.769Z,2.97
2022-07-30T14:57:55.298Z,3.20
2022-07-30T15:00:24.323Z,3.05
2022-07-30T15:02:52.131Z,2.22
2022-07-30T15:05:19.752Z,2.60
2022-07-30T15:07:47.574Z,3.05
2022-07-30T15:10:15.656Z,3.45
2022-07-30T15:12:43.604Z,3.15
2022-07-30T15:15:12.627Z,3.00
2022-07-30T15:17:42.315Z,3.72
2022-07-30T15:20:10.757Z,3.60
2022-07-30T15:22:38.648Z,3.65
2022-07-30T15:25:07.002Z,4.15
2022-07-30T15:27:34.844Z,3.10
2022-07-30T15:30:02.758Z,3.80
2022-07-30T15:32:30.911Z,3.30
2022-07-30T15:34:58.814Z,3.78
2022-07-30T15:37:28.182Z,3.40
2022-07-30T15:39:55.733Z,3.90
2022-07-30T15:42:23.741Z,3.53
2022-07-30T15:45:15.262Z,3.13
2022-07-30T15:47:39.091Z,3.40
2022-07-30T15:50:07.792Z,4.07
2022-07-30T15:52:36.448Z,4.28
2022-07-30T15:55:04.953Z,4.78
2022-07-30T15:57:33.126Z,4.95
2022-07-30T16:00:00.879Z,9.77
2022-07-30T16:02:28.691Z,6.60
2022-07-30T16:04:56.428Z,13.90
2022-07-30T16:07:24.192Z,16.88
2022-07-30T16:09:51.754Z,13.98
2022-07-30T16:12:19.517Z,15.23
2022-07-30T16:14:47.474Z,16.98
2022-07-30T16:17:16.408Z,15.18
2022-07-30T16:19:44.765Z,16.80
2022-07-30T16:22:15.023Z,15.55
2022-07-30T16:24:52.044Z,14.93
2022-07-30T16:27:19.952Z,12.13
2022-07-30T16:29:47.549Z,16.52
2022-07-30T16:32:15.265Z,16.02
2022-07-30T16:34:42.844Z,14.98
2022-07-30T16:37:10.663Z,16.17
2022-07-30T16:39:38.683Z,14.30
2022-07-30T16:42:06.741Z,15.20
2022-07-30T16:44:36.135Z,15.32
2022-07-30T16:47:03.990Z,13.98
2022-07-30T16:49:33.696Z,13.10
2022-07-30T16:52:01.694Z,11.82
2022-07-30T16:54:29.700Z,11.02
2022-07-30T16:56:57.242Z,9.30
2022-07-30T16:59:24.832Z,12.30
2022-07-30T17:01:52.667Z,11.40
2022-07-30T17:04:20.273Z,9.30
2022-07-30T17:06:47.817Z,10.73
2022-07-30T17:09:15.856Z,10.40
2022-07-30T17:11:46.646Z,9.57
2022-07-30T17:14:15.892Z,11.63
2022-07-30T17:16:43.658Z,10.55
2022-07-30T17:19:11.292Z,9.05
2022-07-30T17:21:39.002Z,10.07
2022-07-30T17:24:11.459Z,6.82
2022-07-30T17:26:46.653Z,9.63
2022-07-30T17:29:15.516Z,7.63
2022-07-30T17:31:44.292Z,7.55
2022-07-30T17:34:13.861Z,18.40
2022-07-30T17:36:44.369Z,11.70
2022-07-30T17:40:18.885Z,10.45
2022-07-30T17:42:11.068Z,14.63
2022-07-30T17:44:41.145Z,13.25
2022-07-30T17:47:14.464Z,8.63
2022-07-30T17:49:44.443Z,10.13
2022-07-30T17:52:13.667Z,12.77
2022-07-30T17:54:41.326Z,8.88
2022-07-30T17:57:09.058Z,8.73
2022-07-30T17:59:38.062Z,22.90
2022-07-30T18:02:06.360Z,14.43
2022-07-30T18:04:34.951Z,13.52
2022-07-30T18:07:03.248Z,7.88
2022-07-30T18:09:39.505Z,12.77
2022-07-30T18:12:09.193Z,10.77
2022-07-30T18:14:40.908Z,8.95
2022-07-30T18:17:14.114Z,7.80
2022-07-30T18:19:42.294Z,8.93
2022-07-30T18:22:09.893Z,7.47
2022-07-30T18:24:40.283Z,9.18
2022-07-30T18:27:15.609Z,8.40
2022-07-30T18:29:43.394Z,8.95
2022-07-30T18:32:11.036Z,8.60
2022-07-30T18:34:40.152Z,9.85
2022-07-30T18:37:07.984Z,10.35
2022-07-30T18:39:35.611Z,10.35
2022-07-30T18:42:04.886Z,11.98
2022-07-30T18:44:33.305Z,13.18
2022-07-30T18:47:01.295Z,12.98
2022-07-30T18:49:37.747Z,12.90
2022-07-30T18:52:07.734Z,12.57
2022-07-30T18:54:40.438Z,13.53
2022-07-30T18:57:14.143Z,14.88
2022-07-30T18:59:42.894Z,17.30
2022-07-30T19:02:10.757Z,16.83
2022-07-30T19:04:38.417Z,16.40
2022-07-30T19:07:07.195Z,19.35
2022-07-30T19:09:35.170Z,18.15
2022-07-30T19:12:03.514Z,17.50
2022-07-30T19:14:31.392Z,20.98
2022-07-30T19:16:59.388Z,21.83
2022-07-30T19:19:28.019Z,21.75
2022-07-30T19:21:55.782Z,22.35
2022-07-30T19:24:23.780Z,22.40
2022-07-30T19:26:56.327Z,20.60
2022-07-30T19:29:24.335Z,22.70
2022-07-30T19:31:52.171Z,20.70
2022-07-30T19:34:19.851Z,23.90
2022-07-30T19:36:47.391Z,20.25
2022-07-30T19:39:21.830Z,22.70
2022-07-30T19:41:51.063Z,21.10
2022-07-30T19:44:19.436Z,20.42
2022-07-30T19:46:48.591Z,22.10
2022-07-30T19:49:17.333Z,21.05
2022-07-30T19:52:09.785Z,20.05
2022-07-30T19:54:36.796Z,19.98
2022-07-30T19:57:05.090Z,19.90
2022-07-30T20:03:53.212Z,21.17
2022-07-30T20:06:22.106Z,22.40
2022-07-30T20:08:51.447Z,22.58
2022-07-30T20:11:34.841Z,22.10
2022-07-30T20:14:04.841Z,18.85
2022-07-30T20:16:32.430Z,22.58
2022-07-30T20:18:59.939Z,22.85
2022-07-30T20:21:56.967Z,24.08
2022-07-30T20:24:19.416Z,22.98
2022-07-30T20:26:49.035Z,23.80
2022-07-30T20:29:19.425Z,23.30
2022-07-30T20:31:49.726Z,24.17
2022-07-30T20:34:23.365Z,19.75
2022-07-30T20:36:51.715Z,21.60
2022-07-30T20:39:21.822Z,20.98
2022-07-30T20:41:49.393Z,18.45
2022-07-30T20:44:23.605Z,18.75
2022-07-30T20:46:52.647Z,22.95
2022-07-30T20:49:24.201Z,24.42
2022-07-30T20:52:02.842Z,24.98
2022-07-30T20:54:30.648Z,25.17
2022-07-30T20:56:58.271Z,24.02
2022-07-30T20:59:26.960Z,27.50
2022-07-30T21:01:55.807Z,27.45
2022-07-30T21:04:25.878Z,26.65
2022-07-30T21:06:55.447Z,27.90
2022-07-30T21:09:23.408Z,25.65
2022-07-30T21:14:22.564Z,28.20
2022-07-30T21:19:40.725Z,28.25
2022-07-30T21:22:09.061Z,28.58
2022-07-30T21:24:36.855Z,23.58
2022-07-30T21:27:04.664Z,26.58
2022-07-30T21:29:32.451Z,24.13
2022-07-30T21:32:05.116Z,23.00
2022-07-30T21:34:36.006Z,19.75
2022-07-30T21:37:20.871Z,18.05
2022-07-30T21:39:51.975Z,21.33
2022-07-30T21:42:25.900Z,19.88
2022-07-30T21:44:58.134Z,21.42
2022-07-30T21:47:25.673Z,22.02
2022-07-30T21:49:54.800Z,22.25
2022-07-30T21:52:22.459Z,22.35
2022-07-30T21:54:51.929Z,21.08
2022-07-30T21:57:26.242Z,18.77
2022-07-30T21:59:55.114Z,20.85
2022-07-30T22:02:23.773Z,20.85
2022-07-30T22:04:52.354Z,21.20
2022-07-30T22:07:21.909Z,20.20
2022-07-30T22:09:50.048Z,22.10
2022-07-30T22:12:18.285Z,19.98
2022-07-30T22:14:48.705Z,21.65
2022-07-30T22:20:08.658Z,20.63
2022-07-30T22:22:42.493Z,16.88
2022-07-30T22:27:39.464Z,20.15
2022-07-30T22:30:08.107Z,18.42
2022-07-30T22:32:36.463Z,17.02
2022-07-30T22:35:07.314Z,16.15
2022-07-30T22:37:34.914Z,16.15
2022-07-30T22:40:06.702Z,14.93
2022-07-30T22:42:36.551Z,16.23
2022-07-30T22:45:17.334Z,13.30
2022-07-30T22:48:10.112Z,10.77
2022-07-30T22:50:40.185Z,10.90
2022-07-30T22:53:23.618Z,10.20
2022-07-30T22:55:56.492Z,9.48
2022-07-30T22:58:26.640Z,8.32
2022-07-30T23:00:54.299Z,9.05
2022-07-30T23:03:22.153Z,8.43
2022-07-30T23:05:55.097Z,7.25
2022-07-30T23:08:30.179Z,6.47
2022-07-30T23:10:59.889Z,6.10
2022-07-30T23:12:27.040Z,28.73
2022-07-30T23:12:31.225Z,20.23
2022-07-30T23:13:28.686Z,6.97
2022-07-30T23:15:56.471Z,5.95
2022-07-30T23:18:24.116Z,5.38
2022-07-30T23:20:51.904Z,5.50
2022-07-30T23:23:19.671Z,5.28
2022-07-30T23:25:47.263Z,5.15
2022-07-30T23:28:15.095Z,5.50
2022-07-30T23:30:42.612Z,5.90
2022-07-30T23:33:10.211Z,5.70
2022-07-30T23:35:38.374Z,6.07
2022-07-30T23:38:06.010Z,5.18
2022-07-30T23:40:33.575Z,4.30
2022-07-30T23:43:01.408Z,4.50
2022-07-30T23:45:28.979Z,4.53
2022-07-30T23:48:02.805Z,5.05
2022-07-30T23:50:32.415Z,4.18
2022-07-30T23:53:01.392Z,4.18
2022-07-30T23:55:29.519Z,4.90
2022-07-30T23:57:57.963Z,4.05
